sensor_id;sensor_type;location;lat;lon;timestamp;P1;P2;P0
47705;PMS5003;33471;52.104;1.318;2022-11-20T00:01:26;33;33;
47705;PMS5003;33471;52.104;1.318;2022-11-20T00:03:56;37;34;
47705;PMS5003;33471;52.104;1.318;2022-11-20T00:06:24;36;34;
47705;PMS5003;33471;52.104;1.318;2022-11-20T00:08:54;29;29;
47705;PMS5003;33471;52.104;1.318;2022-11-20T00:11:23;30;30;
47705;PMS5003;33471;52.104;1.318;2022-11-20T00:13:54;32;31;
47705;PMS5003;33471;52.104;1.318;2022-11-20T00:16:23;30;29;
47705;PMS5003;33471;52.104;1.318;2022-11-20T00:18:52;32;32;
47705;PMS5003;33471;52.104;1.318;2022-11-20T00:21:21;29;29;
47705;PMS5003;33471;52.104;1.318;2022-11-20T00:23:51;31;26;
47705;PMS5003;33471;52.104;1.318;2022-11-20T00:26:21;43;42;
47705;PMS5003;33471;52.104;1.318;2022-11-20T00:28:50;55;50;
47705;PMS5003;33471;52.104;1.318;2022-11-20T00:31:20;45;42;
47705;PMS5003;33471;52.104;1.318;2022-11-20T00:33:47;56;54;
47705;PMS5003;33471;52.104;1.318;2022-11-20T00:36:15;72;72;
47705;PMS5003;33471;52.104;1.318;2022-11-20T00:38:44;58;56;
47705;PMS5003;33471;52.104;1.318;2022-11-20T00:41:12;51;50;
47705;PMS5003;33471;52.104;1.318;2022-11-20T00:43:41;64;55;
47705;PMS5003;33471;52.104;1.318;2022-11-20T00:46:09;45;44;
47705;PMS5003;33471;52.104;1.318;2022-11-20T00:48:39;47;46;
47705;PMS5003;33471;52.104;1.318;2022-11-20T00:51:06;56;53;
47705;PMS5003;33471;52.104;1.318;2022-11-20T00:53:34;45;44;
47705;PMS5003;33471;52.104;1.318;2022-11-20T00:56:02;47;40;
47705;PMS5003;33471;52.104;1.318;2022-11-20T00:58:31;43;41;
47705;PMS5003;33471;52.104;1.318;2022-11-20T01:01:00;43;40;
47705;PMS5003;33471;52.104;1.318;2022-11-20T01:03:30;49;48;
47705;PMS5003;33471;52.104;1.318;2022-11-20T01:05:59;44;43;
47705;PMS5003;33471;52.104;1.318;2022-11-20T01:08:29;60;52;
47705;PMS5003;33471;52.104;1.318;2022-11-20T01:10:58;56;48;
47705;PMS5003;33471;52.104;1.318;2022-11-20T01:13:26;48;48;
47705;PMS5003;33471;52.104;1.318;2022-11-20T01:15:55;49;48;
47705;PMS5003;33471;52.104;1.318;2022-11-20T01:18:28;53;52;
47705;PMS5003;33471;52.104;1.318;2022-11-20T01:20:55;58;54;
47705;PMS5003;33471;52.104;1.318;2022-11-20T01:23:30;52;50;
47705;PMS5003;33471;52.104;1.318;2022-11-20T01:25:59;51;47;
47705;PMS5003;33471;52.104;1.318;2022-11-20T01:28:27;43;41;
47705;PMS5003;33471;52.104;1.318;2022-11-20T01:30:55;43;40;
47705;PMS5003;33471;52.104;1.318;2022-11-20T01:33:23;43;39;
47705;PMS5003;33471;52.104;1.318;2022-11-20T01:35:50;42;39;
47705;PMS5003;33471;52.104;1.318;2022-11-20T01:38:18;34;30;
47705;PMS5003;33471;52.104;1.318;2022-11-20T01:40:45;45;43;
47705;PMS5003;33471;52.104;1.318;2022-11-20T01:43:21;38;36;
47705;PMS5003;33471;52.104;1.318;2022-11-20T01:45:56;41;37;
47705;PMS5003;33471;52.104;1.318;2022-11-20T01:48:27;40;37;
47705;PMS5003;33471;52.104;1.318;2022-11-20T01:50:58;42;39;
47705;PMS5003;33471;52.104;1.318;2022-11-20T01:53:28;34;32;
47705;PMS5003;33471;52.104;1.318;2022-11-20T01:55:58;43;41;
47705;PMS5003;33471;52.104;1.318;2022-11-20T01:58:31;37;34;
47705;PMS5003;33471;52.104;1.318;2022-11-20T02:01:02;43;36;
47705;PMS5003;33471;52.104;1.318;2022-11-20T02:03:31;42;42;
47705;PMS5003;33471;52.104;1.318;2022-11-20T02:06:01;35;32;
47705;PMS5003;33471;52.104;1.318;2022-11-20T02:08:33;41;40;
47705;PMS5003;33471;52.104;1.318;2022-11-20T02:11:02;44;41;
47705;PMS5003;33471;52.104;1.318;2022-11-20T02:13:29;42;38;
47705;PMS5003;33471;52.104;1.318;2022-11-20T02:15:56;43;42;
47705;PMS5003;33471;52.104;1.318;2022-11-20T02:18:24;46;43;
47705;PMS5003;33471;52.104;1.318;2022-11-20T02:20:54;41;38;
47705;PMS5003;33471;52.104;1.318;2022-11-20T02:23:26;34;31;
47705;PMS5003;33471;52.104;1.318;2022-11-20T02:26:00;37;34;
47705;PMS5003;33471;52.104;1.318;2022-11-20T02:28:32;37;37;
47705;PMS5003;33471;52.104;1.318;2022-11-20T02:31:00;40;39;
47705;PMS5003;33471;52.104;1.318;2022-11-20T02:33:27;42;36;
47705;PMS5003;33471;52.104;1.318;2022-11-20T02:35:54;43;38;
47705;PMS5003;33471;52.104;1.318;2022-11-20T02:38:22;43;42;
47705;PMS5003;33471;52.104;1.318;2022-11-20T02:40:50;41;37;
47705;PMS5003;33471;52.104;1.318;2022-11-20T02:43:16;37;33;
47705;PMS5003;33471;52.104;1.318;2022-11-20T02:45:43;48;45;
47705;PMS5003;33471;52.104;1.318;2022-11-20T02:48:11;40;33;
47705;PMS5003;33471;52.104;1.318;2022-11-20T02:50:38;40;36;
47705;PMS5003;33471;52.104;1.318;2022-11-20T02:53:06;39;38;
47705;PMS5003;33471;52.104;1.318;2022-11-20T02:55:33;35;34;
47705;PMS5003;33471;52.104;1.318;2022-11-20T02:58:01;38;36;
47705;PMS5003;33471;52.104;1.318;2022-11-20T03:00:28;39;39;
47705;PMS5003;33471;52.104;1.318;2022-11-20T03:02:56;36;36;
47705;PMS5003;33471;52.104;1.318;2022-11-20T03:05:23;33;32;
47705;PMS5003;33471;52.104;1.318;2022-11-20T03:07:51;35;34;
47705;PMS5003;33471;52.104;1.318;2022-11-20T03:10:19;36;35;
47705;PMS5003;33471;52.104;1.318;2022-11-20T03:12:47;33;31;
47705;PMS5003;33471;52.104;1.318;2022-11-20T03:15:18;43;37;
47705;PMS5003;33471;52.104;1.318;2022-11-20T03:17:45;30;29;
47705;PMS5003;33471;52.104;1.318;2022-11-20T03:20:13;41;36;
47705;PMS5003;33471;52.104;1.318;2022-11-20T03:22:40;37;33;
47705;PMS5003;33471;52.104;1.318;2022-11-20T03:25:08;44;39;
47705;PMS5003;33471;52.104;1.318;2022-11-20T03:27:34;41;33;
47705;PMS5003;33471;52.104;1.318;2022-11-20T03:30:02;42;37;
47705;PMS5003;33471;52.104;1.318;2022-11-20T03:32:30;40;37;
47705;PMS5003;33471;52.104;1.318;2022-11-20T03:34:57;36;36;
47705;PMS5003;33471;52.104;1.318;2022-11-20T03:37:25;42;40;
47705;PMS5003;33471;52.104;1.318;2022-11-20T03:39:52;42;37;
47705;PMS5003;33471;52.104;1.318;2022-11-20T03:42:20;41;37;
47705;PMS5003;33471;52.104;1.318;2022-11-20T03:44:48;38;36;
47705;PMS5003;33471;52.104;1.318;2022-11-20T03:47:15;40;39;
47705;PMS5003;33471;52.104;1.318;2022-11-20T03:49:42;36;36;
47705;PMS5003;33471;52.104;1.318;2022-11-20T03:52:09;35;35;
47705;PMS5003;33471;52.104;1.318;2022-11-20T03:54:37;39;37;
47705;PMS5003;33471;52.104;1.318;2022-11-20T03:57:04;35;31;
47705;PMS5003;33471;52.104;1.318;2022-11-20T03:59:31;46;40;
47705;PMS5003;33471;52.104;1.318;2022-11-20T04:01:58;35;31;
47705;PMS5003;33471;52.104;1.318;2022-11-20T04:04:26;37;34;
47705;PMS5003;33471;52.104;1.318;2022-11-20T04:06:53;36;36;
47705;PMS5003;33471;52.104;1.318;2022-11-20T04:09:21;31;30;
47705;PMS5003;33471;52.104;1.318;2022-11-20T04:11:48;32;31;
47705;PMS5003;33471;52.104;1.318;2022-11-20T04:14:15;33;30;
47705;PMS5003;33471;52.104;1.318;2022-11-20T04:16:43;29;28;
47705;PMS5003;33471;52.104;1.318;2022-11-20T04:19:11;40;36;
47705;PMS5003;33471;52.104;1.318;2022-11-20T04:21:40;36;31;
47705;PMS5003;33471;52.104;1.318;2022-11-20T04:24:07;27;25;
47705;PMS5003;33471;52.104;1.318;2022-11-20T04:26:35;39;36;
47705;PMS5003;33471;52.104;1.318;2022-11-20T04:29:03;39;32;
47705;PMS5003;33471;52.104;1.318;2022-11-20T04:31:31;35;32;
47705;PMS5003;33471;52.104;1.318;2022-11-20T04:34:00;38;34;
47705;PMS5003;33471;52.104;1.318;2022-11-20T04:36:29;32;32;
47705;PMS5003;33471;52.104;1.318;2022-11-20T04:38:57;38;34;
47705;PMS5003;33471;52.104;1.318;2022-11-20T04:41:26;36;33;
47705;PMS5003;33471;52.104;1.318;2022-11-20T04:43:56;32;32;
47705;PMS5003;33471;52.104;1.318;2022-11-20T04:46:25;34;32;
47705;PMS5003;33471;52.104;1.318;2022-11-20T04:48:53;33;29;
47705;PMS5003;33471;52.104;1.318;2022-11-20T04:51:21;27;26;
47705;PMS5003;33471;52.104;1.318;2022-11-20T04:53:49;34;31;
47705;PMS5003;33471;52.104;1.318;2022-11-20T04:56:16;35;33;
47705;PMS5003;33471;52.104;1.318;2022-11-20T04:58:44;26;24;
47705;PMS5003;33471;52.104;1.318;2022-11-20T05:01:12;36;31;
47705;PMS5003;33471;52.104;1.318;2022-11-20T05:03:41;35;34;
47705;PMS5003;33471;52.104;1.318;2022-11-20T05:06:10;34;32;
47705;PMS5003;33471;52.104;1.318;2022-11-20T05:08:39;37;30;
47705;PMS5003;33471;52.104;1.318;2022-11-20T05:11:08;32;29;
47705;PMS5003;33471;52.104;1.318;2022-11-20T05:13:36;35;34;
47705;PMS5003;33471;52.104;1.318;2022-11-20T05:16:06;36;32;
47705;PMS5003;33471;52.104;1.318;2022-11-20T05:18:35;30;29;
47705;PMS5003;33471;52.104;1.318;2022-11-20T05:21:03;29;29;
47705;PMS5003;33471;52.104;1.318;2022-11-20T05:23:32;31;30;
47705;PMS5003;33471;52.104;1.318;2022-11-20T05:26:00;34;29;
47705;PMS5003;33471;52.104;1.318;2022-11-20T05:28:29;30;28;
47705;PMS5003;33471;52.104;1.318;2022-11-20T05:31:03;33;31;
47705;PMS5003;33471;52.104;1.318;2022-11-20T05:33:32;36;31;
47705;PMS5003;33471;52.104;1.318;2022-11-20T05:35:59;30;25;
47705;PMS5003;33471;52.104;1.318;2022-11-20T05:38:27;34;31;
47705;PMS5003;33471;52.104;1.318;2022-11-20T05:40:55;39;38;
47705;PMS5003;33471;52.104;1.318;2022-11-20T05:43:31;38;34;
47705;PMS5003;33471;52.104;1.318;2022-11-20T05:45:59;38;35;
47705;PMS5003;33471;52.104;1.318;2022-11-20T05:48:27;38;36;
47705;PMS5003;33471;52.104;1.318;2022-11-20T05:50:56;33;30;
47705;PMS5003;33471;52.104;1.318;2022-11-20T05:53:23;34;30;
47705;PMS5003;33471;52.104;1.318;2022-11-20T05:55:59;36;34;
47705;PMS5003;33471;52.104;1.318;2022-11-20T05:58:27;32;28;
47705;PMS5003;33471;52.104;1.318;2022-11-20T06:00:58;41;37;
47705;PMS5003;33471;52.104;1.318;2022-11-20T06:03:31;36;30;
47705;PMS5003;33471;52.104;1.318;2022-11-20T06:05:58;36;34;
47705;PMS5003;33471;52.104;1.318;2022-11-20T06:08:26;28;28;
47705;PMS5003;33471;52.104;1.318;2022-11-20T06:10:53;33;29;
47705;PMS5003;33471;52.104;1.318;2022-11-20T06:13:21;37;34;
47705;PMS5003;33471;52.104;1.318;2022-11-20T06:15:48;40;37;
47705;PMS5003;33471;52.104;1.318;2022-11-20T06:18:16;32;32;
47705;PMS5003;33471;52.104;1.318;2022-11-20T06:20:43;34;33;
47705;PMS5003;33471;52.104;1.318;2022-11-20T06:23:12;47;41;
47705;PMS5003;33471;52.104;1.318;2022-11-20T06:25:40;32;28;
47705;PMS5003;33471;52.104;1.318;2022-11-20T06:28:08;35;26;
47705;PMS5003;33471;52.104;1.318;2022-11-20T06:30:36;29;29;
47705;PMS5003;33471;52.104;1.318;2022-11-20T06:33:03;35;35;
47705;PMS5003;33471;52.104;1.318;2022-11-20T06:35:30;30;30;
47705;PMS5003;33471;52.104;1.318;2022-11-20T06:37:58;32;29;
47705;PMS5003;33471;52.104;1.318;2022-11-20T06:40:25;31;27;
47705;PMS5003;33471;52.104;1.318;2022-11-20T06:42:53;27;26;
47705;PMS5003;33471;52.104;1.318;2022-11-20T06:45:21;40;37;
47705;PMS5003;33471;52.104;1.318;2022-11-20T06:47:49;29;24;
47705;PMS5003;33471;52.104;1.318;2022-11-20T06:50:16;33;29;
47705;PMS5003;33471;52.104;1.318;2022-11-20T06:52:43;34;32;
47705;PMS5003;33471;52.104;1.318;2022-11-20T06:55:11;30;28;
47705;PMS5003;33471;52.104;1.318;2022-11-20T06:57:38;34;30;
47705;PMS5003;33471;52.104;1.318;2022-11-20T07:00:06;34;27;
47705;PMS5003;33471;52.104;1.318;2022-11-20T07:02:33;32;30;
47705;PMS5003;33471;52.104;1.318;2022-11-20T07:05:01;32;26;
47705;PMS5003;33471;52.104;1.318;2022-11-20T07:07:28;39;32;
47705;PMS5003;33471;52.104;1.318;2022-11-20T07:09:56;33;29;
47705;PMS5003;33471;52.104;1.318;2022-11-20T07:12:23;26;26;
47705;PMS5003;33471;52.104;1.318;2022-11-20T07:14:51;29;27;
47705;PMS5003;33471;52.104;1.318;2022-11-20T07:17:18;25;22;
47705;PMS5003;33471;52.104;1.318;2022-11-20T07:19:45;27;23;
47705;PMS5003;33471;52.104;1.318;2022-11-20T07:22:12;19;19;
47705;PMS5003;33471;52.104;1.318;2022-11-20T07:24:40;25;24;
47705;PMS5003;33471;52.104;1.318;2022-11-20T07:27:07;20;19;
47705;PMS5003;33471;52.104;1.318;2022-11-20T07:29:34;20;18;
47705;PMS5003;33471;52.104;1.318;2022-11-20T07:32:01;17;17;
47705;PMS5003;33471;52.104;1.318;2022-11-20T07:34:31;12;12;
47705;PMS5003;33471;52.104;1.318;2022-11-20T07:36:58;20;17;
47705;PMS5003;33471;52.104;1.318;2022-11-20T07:39:25;17;17;
47705;PMS5003;33471;52.104;1.318;2022-11-20T07:41:53;16;14;
47705;PMS5003;33471;52.104;1.318;2022-11-20T07:44:21;14;14;
47705;PMS5003;33471;52.104;1.318;2022-11-20T07:46:48;15;14;
47705;PMS5003;33471;52.104;1.318;2022-11-20T07:49:16;10;10;
47705;PMS5003;33471;52.104;1.318;2022-11-20T07:51:43;16;14;
47705;PMS5003;33471;52.104;1.318;2022-11-20T07:54:10;10;8;
47705;PMS5003;33471;52.104;1.318;2022-11-20T07:56:37;8;8;
47705;PMS5003;33471;52.104;1.318;2022-11-20T07:59:05;16;16;
47705;PMS5003;33471;52.104;1.318;2022-11-20T08:01:32;7;6;
47705;PMS5003;33471;52.104;1.318;2022-11-20T08:03:59;9;8;
47705;PMS5003;33471;52.104;1.318;2022-11-20T08:06:26;5;5;
47705;PMS5003;33471;52.104;1.318;2022-11-20T08:08:54;4;4;
47705;PMS5003;33471;52.104;1.318;2022-11-20T08:11:22;4;4;
47705;PMS5003;33471;52.104;1.318;2022-11-20T08:13:49;4;4;
47705;PMS5003;33471;52.104;1.318;2022-11-20T08:16:16;3;3;
47705;PMS5003;33471;52.104;1.318;2022-11-20T08:18:43;4;4;
47705;PMS5003;33471;52.104;1.318;2022-11-20T08:21:10;4;4;
47705;PMS5003;33471;52.104;1.318;2022-11-20T08:23:38;2;2;
47705;PMS5003;33471;52.104;1.318;2022-11-20T08:26:05;2;2;
47705;PMS5003;33471;52.104;1.318;2022-11-20T08:28:32;3;3;
47705;PMS5003;33471;52.104;1.318;2022-11-20T08:30:59;2;2;
47705;PMS5003;33471;52.104;1.318;2022-11-20T08:33:28;3;3;
47705;PMS5003;33471;52.104;1.318;2022-11-20T08:35:58;3;3;
47705;PMS5003;33471;52.104;1.318;2022-11-20T08:38:26;4;2;
47705;PMS5003;33471;52.104;1.318;2022-11-20T08:40:56;1;1;
47705;PMS5003;33471;52.104;1.318;2022-11-20T08:43:23;2;2;
47705;PMS5003;33471;52.104;1.318;2022-11-20T08:45:51;3;2;
47705;PMS5003;33471;52.104;1.318;2022-11-20T08:48:19;2;2;
47705;PMS5003;33471;52.104;1.318;2022-11-20T08:50:46;3;3;
47705;PMS5003;33471;52.104;1.318;2022-11-20T08:53:13;3;3;
47705;PMS5003;33471;52.104;1.318;2022-11-20T08:55:40;2;2;
47705;PMS5003;33471;52.104;1.318;2022-11-20T08:58:08;4;4;
47705;PMS5003;33471;52.104;1.318;2022-11-20T09:00:36;6;6;
47705;PMS5003;33471;52.104;1.318;2022-11-20T09:03:03;3;3;
47705;PMS5003;33471;52.104;1.318;2022-11-20T09:05:30;4;4;
47705;PMS5003;33471;52.104;1.318;2022-11-20T09:07:57;3;3;
47705;PMS5003;33471;52.104;1.318;2022-11-20T09:10:24;3;3;
47705;PMS5003;33471;52.104;1.318;2022-11-20T09:12:52;4;3;
47705;PMS5003;33471;52.104;1.318;2022-11-20T09:15:20;3;3;
47705;PMS5003;33471;52.104;1.318;2022-11-20T09:17:50;3;1;
47705;PMS5003;33471;52.104;1.318;2022-11-20T09:20:18;4;3;
47705;PMS5003;33471;52.104;1.318;2022-11-20T09:22:45;5;5;
47705;PMS5003;33471;52.104;1.318;2022-11-20T09:25:12;7;5;
47705;PMS5003;33471;52.104;1.318;2022-11-20T09:27:39;3;3;
47705;PMS5003;33471;52.104;1.318;2022-11-20T09:30:07;1;1;
47705;PMS5003;33471;52.104;1.318;2022-11-20T09:32:34;3;3;
47705;PMS5003;33471;52.104;1.318;2022-11-20T09:35:01;3;3;
47705;PMS5003;33471;52.104;1.318;2022-11-20T09:37:28;2;2;
47705;PMS5003;33471;52.104;1.318;2022-11-20T09:39:56;8;8;
47705;PMS5003;33471;52.104;1.318;2022-11-20T09:42:31;1;1;
47705;PMS5003;33471;52.104;1.318;2022-11-20T09:45:17;2;2;
47705;PMS5003;33471;52.104;1.318;2022-11-20T09:47:53;2;2;
47705;PMS5003;33471;52.104;1.318;2022-11-20T09:50:36;3;3;
47705;PMS5003;33471;52.104;1.318;2022-11-20T09:53:11;2;2;
47705;PMS5003;33471;52.104;1.318;2022-11-20T09:55:43;2;2;
47705;PMS5003;33471;52.104;1.318;2022-11-20T09:58:14;1;1;
47705;PMS5003;33471;52.104;1.318;2022-11-20T10:00:52;1;1;
47705;PMS5003;33471;52.104;1.318;2022-11-20T10:03:21;3;2;
47705;PMS5003;33471;52.104;1.318;2022-11-20T10:06:03;2;2;
47705;PMS5003;33471;52.104;1.318;2022-11-20T10:08:39;6;2;
47705;PMS5003;33471;52.104;1.318;2022-11-20T10:11:12;1;1;
47705;PMS5003;33471;52.104;1.318;2022-11-20T10:13:46;3;2;
47705;PMS5003;33471;52.104;1.318;2022-11-20T10:16:22;2;2;
47705;PMS5003;33471;52.104;1.318;2022-11-20T10:19:01;1;1;
47705;PMS5003;33471;52.104;1.318;2022-11-20T10:21:41;3;3;
47705;PMS5003;33471;52.104;1.318;2022-11-20T10:24:26;3;3;
47705;PMS5003;33471;52.104;1.318;2022-11-20T10:27:11;4;4;
47705;PMS5003;33471;52.104;1.318;2022-11-20T10:29:59;2;2;
47705;PMS5003;33471;52.104;1.318;2022-11-20T10:32:32;4;4;
47705;PMS5003;33471;52.104;1.318;2022-11-20T10:35:05;3;3;
47705;PMS5003;33471;52.104;1.318;2022-11-20T10:37:42;3;3;
47705;PMS5003;33471;52.104;1.318;2022-11-20T10:40:18;3;3;
47705;PMS5003;33471;52.104;1.318;2022-11-20T10:42:50;5;3;
47705;PMS5003;33471;52.104;1.318;2022-11-20T10:45:30;6;4;
47705;PMS5003;33471;52.104;1.318;2022-11-20T10:48:09;2;2;
47705;PMS5003;33471;52.104;1.318;2022-11-20T10:50:47;3;3;
47705;PMS5003;33471;52.104;1.318;2022-11-20T10:53:28;5;4;
47705;PMS5003;33471;52.104;1.318;2022-11-20T10:56:09;4;4;
47705;PMS5003;33471;52.104;1.318;2022-11-20T10:58:47;6;6;
47705;PMS5003;33471;52.104;1.318;2022-11-20T11:01:25;4;4;
47705;PMS5003;33471;52.104;1.318;2022-11-20T11:03:52;7;5;
47705;PMS5003;33471;52.104;1.318;2022-11-20T11:06:22;7;7;
47705;PMS5003;33471;52.104;1.318;2022-11-20T11:08:56;5;5;
47705;PMS5003;33471;52.104;1.318;2022-11-20T11:11:29;4;4;
47705;PMS5003;33471;52.104;1.318;2022-11-20T11:14:04;6;6;
47705;PMS5003;33471;52.104;1.318;2022-11-20T11:16:32;4;4;
47705;PMS5003;33471;52.104;1.318;2022-11-20T11:19:04;6;6;
47705;PMS5003;33471;52.104;1.318;2022-11-20T11:21:33;4;4;
47705;PMS5003;33471;52.104;1.318;2022-11-20T11:24:01;5;5;
47705;PMS5003;33471;52.104;1.318;2022-11-20T11:26:30;8;4;
47705;PMS5003;33471;52.104;1.318;2022-11-20T11:28:58;4;4;
47705;PMS5003;33471;52.104;1.318;2022-11-20T11:31:27;4;4;
47705;PMS5003;33471;52.104;1.318;2022-11-20T11:34:04;8;7;
47705;PMS5003;33471;52.104;1.318;2022-11-20T11:36:33;5;3;
47705;PMS5003;33471;52.104;1.318;2022-11-20T11:39:04;4;4;
47705;PMS5003;33471;52.104;1.318;2022-11-20T11:41:37;7;6;
47705;PMS5003;33471;52.104;1.318;2022-11-20T11:44:30;6;6;
47705;PMS5003;33471;52.104;1.318;2022-11-20T11:47:00;59;55;
47705;PMS5003;33471;52.104;1.318;2022-11-20T11:49:30;14;13;
47705;PMS5003;33471;52.104;1.318;2022-11-20T11:52:03;14;13;
47705;PMS5003;33471;52.104;1.318;2022-11-20T11:54:38;8;8;
47705;PMS5003;33471;52.104;1.318;2022-11-20T11:57:15;9;6;
47705;PMS5003;33471;52.104;1.318;2022-11-20T11:59:53;4;3;
47705;PMS5003;33471;52.104;1.318;2022-11-20T12:02:31;6;6;
47705;PMS5003;33471;52.104;1.318;2022-11-20T12:05:05;6;4;
47705;PMS5003;33471;52.104;1.318;2022-11-20T12:07:45;5;5;
47705;PMS5003;33471;52.104;1.318;2022-11-20T12:10:16;7;6;
47705;PMS5003;33471;52.104;1.318;2022-11-20T12:12:49;5;5;
47705;PMS5003;33471;52.104;1.318;2022-11-20T12:15:25;7;5;
47705;PMS5003;33471;52.104;1.318;2022-11-20T12:17:56;5;5;
47705;PMS5003;33471;52.104;1.318;2022-11-20T12:20:24;4;4;
47705;PMS5003;33471;52.104;1.318;2022-11-20T12:22:56;9;6;
47705;PMS5003;33471;52.104;1.318;2022-11-20T12:25:32;8;8;
47705;PMS5003;33471;52.104;1.318;2022-11-20T12:28:07;11;11;
47705;PMS5003;33471;52.104;1.318;2022-11-20T12:30:49;4;4;
47705;PMS5003;33471;52.104;1.318;2022-11-20T12:33:37;7;7;
47705;PMS5003;33471;52.104;1.318;2022-11-20T12:36:16;7;5;
47705;PMS5003;33471;52.104;1.318;2022-11-20T12:38:58;3;3;
47705;PMS5003;33471;52.104;1.318;2022-11-20T12:39:35;3;3;
47705;PMS5003;33471;52.104;1.318;2022-11-20T12:42:13;8;6;
47705;PMS5003;33471;52.104;1.318;2022-11-20T12:44:57;6;6;
47705;PMS5003;33471;52.104;1.318;2022-11-20T12:47:36;5;5;
47705;PMS5003;33471;52.104;1.318;2022-11-20T12:50:19;4;4;
47705;PMS5003;33471;52.104;1.318;2022-11-20T12:52:58;4;3;
47705;PMS5003;33471;52.104;1.318;2022-11-20T12:55:34;11;9;
47705;PMS5003;33471;52.104;1.318;2022-11-20T12:58:15;9;9;
47705;PMS5003;33471;52.104;1.318;2022-11-20T13:00:52;3;2;
47705;PMS5003;33471;52.104;1.318;2022-11-20T13:03:27;9;9;
47705;PMS5003;33471;52.104;1.318;2022-11-20T13:06:05;5;4;
47705;PMS5003;33471;52.104;1.318;2022-11-20T13:08:41;5;5;
47705;PMS5003;33471;52.104;1.318;2022-11-20T13:11:16;4;4;
47705;PMS5003;33471;52.104;1.318;2022-11-20T13:14:03;5;4;
47705;PMS5003;33471;52.104;1.318;2022-11-20T13:16:40;5;5;
47705;PMS5003;33471;52.104;1.318;2022-11-20T13:19:16;7;6;
47705;PMS5003;33471;52.104;1.318;2022-11-20T13:21:46;6;4;
47705;PMS5003;33471;52.104;1.318;2022-11-20T13:24:23;3;3;
47705;PMS5003;33471;52.104;1.318;2022-11-20T13:27:01;5;4;
47705;PMS5003;33471;52.104;1.318;2022-11-20T13:29:31;6;5;
47705;PMS5003;33471;52.104;1.318;2022-11-20T13:32:02;3;3;
47705;PMS5003;33471;52.104;1.318;2022-11-20T13:34:33;4;4;
47705;PMS5003;33471;52.104;1.318;2022-11-20T13:37:01;4;4;
47705;PMS5003;33471;52.104;1.318;2022-11-20T13:39:30;3;3;
47705;PMS5003;33471;52.104;1.318;2022-11-20T13:42:00;6;6;
47705;PMS5003;33471;52.104;1.318;2022-11-20T13:44:30;8;8;
47705;PMS5003;33471;52.104;1.318;2022-11-20T13:47:04;3;3;
47705;PMS5003;33471;52.104;1.318;2022-11-20T13:49:46;5;5;
47705;PMS5003;33471;52.104;1.318;2022-11-20T13:52:24;5;3;
47705;PMS5003;33471;52.104;1.318;2022-11-20T13:55:07;8;8;
47705;PMS5003;33471;52.104;1.318;2022-11-20T13:57:49;3;3;
47705;PMS5003;33471;52.104;1.318;2022-11-20T14:00:26;7;4;
47705;PMS5003;33471;52.104;1.318;2022-11-20T14:03:06;1;1;
47705;PMS5003;33471;52.104;1.318;2022-11-20T14:05:37;6;3;
47705;PMS5003;33471;52.104;1.318;2022-11-20T14:08:11;4;4;
47705;PMS5003;33471;52.104;1.318;2022-11-20T14:10:47;5;5;
47705;PMS5003;33471;52.104;1.318;2022-11-20T14:13:15;6;5;
47705;PMS5003;33471;52.104;1.318;2022-11-20T14:15:44;4;4;
47705;PMS5003;33471;52.104;1.318;2022-11-20T14:18:13;4;2;
47705;PMS5003;33471;52.104;1.318;2022-11-20T14:20:46;2;2;
47705;PMS5003;33471;52.104;1.318;2022-11-20T14:23:23;5;3;
47705;PMS5003;33471;52.104;1.318;2022-11-20T14:25:52;3;3;
47705;PMS5003;33471;52.104;1.318;2022-11-20T14:28:25;3;3;
47705;PMS5003;33471;52.104;1.318;2022-11-20T14:30:54;5;5;
47705;PMS5003;33471;52.104;1.318;2022-11-20T14:33:23;4;2;
47705;PMS5003;33471;52.104;1.318;2022-11-20T14:35:54;5;5;
47705;PMS5003;33471;52.104;1.318;2022-11-20T14:38:24;5;5;
47705;PMS5003;33471;52.104;1.318;2022-11-20T14:40:53;8;8;
47705;PMS5003;33471;52.104;1.318;2022-11-20T14:43:22;6;6;
47705;PMS5003;33471;52.104;1.318;2022-11-20T14:45:55;10;10;
47705;PMS5003;33471;52.104;1.318;2022-11-20T14:48:29;4;4;
47705;PMS5003;33471;52.104;1.318;2022-11-20T14:50:58;7;6;
47705;PMS5003;33471;52.104;1.318;2022-11-20T14:53:25;5;5;
47705;PMS5003;33471;52.104;1.318;2022-11-20T14:55:55;5;5;
47705;PMS5003;33471;52.104;1.318;2022-11-20T14:58:24;6;4;
47705;PMS5003;33471;52.104;1.318;2022-11-20T15:00:53;6;6;
47705;PMS5003;33471;52.104;1.318;2022-11-20T15:03:23;5;5;
47705;PMS5003;33471;52.104;1.318;2022-11-20T15:05:57;4;4;
47705;PMS5003;33471;52.104;1.318;2022-11-20T15:08:24;6;6;
47705;PMS5003;33471;52.104;1.318;2022-11-20T15:10:51;6;5;
47705;PMS5003;33471;52.104;1.318;2022-11-20T15:13:24;5;5;
47705;PMS5003;33471;52.104;1.318;2022-11-20T15:15:53;5;3;
47705;PMS5003;33471;52.104;1.318;2022-11-20T15:18:22;6;6;
47705;PMS5003;33471;52.104;1.318;2022-11-20T15:20:53;5;5;
47705;PMS5003;33471;52.104;1.318;2022-11-20T15:23:23;13;11;
47705;PMS5003;33471;52.104;1.318;2022-11-20T15:25:50;5;5;
47705;PMS5003;33471;52.104;1.318;2022-11-20T15:28:19;4;3;
47705;PMS5003;33471;52.104;1.318;2022-11-20T15:30:49;9;9;
47705;PMS5003;33471;52.104;1.318;2022-11-20T15:33:17;5;4;
47705;PMS5003;33471;52.104;1.318;2022-11-20T15:35:44;4;4;
47705;PMS5003;33471;52.104;1.318;2022-11-20T15:38:13;8;8;
47705;PMS5003;33471;52.104;1.318;2022-11-20T15:40:40;11;11;
47705;PMS5003;33471;52.104;1.318;2022-11-20T15:43:08;13;13;
47705;PMS5003;33471;52.104;1.318;2022-11-20T15:45:37;9;9;
47705;PMS5003;33471;52.104;1.318;2022-11-20T15:48:09;11;7;
47705;PMS5003;33471;52.104;1.318;2022-11-20T15:50:41;6;6;
47705;PMS5003;33471;52.104;1.318;2022-11-20T15:53:16;5;5;
47705;PMS5003;33471;52.104;1.318;2022-11-20T15:55:44;7;7;
47705;PMS5003;33471;52.104;1.318;2022-11-20T15:58:13;8;5;
47705;PMS5003;33471;52.104;1.318;2022-11-20T16:00:41;12;12;
47705;PMS5003;33471;52.104;1.318;2022-11-20T16:03:11;6;6;
47705;PMS5003;33471;52.104;1.318;2022-11-20T16:05:39;5;5;
47705;PMS5003;33471;52.104;1.318;2022-11-20T16:08:06;12;11;
47705;PMS5003;33471;52.104;1.318;2022-11-20T16:10:34;13;13;
47705;PMS5003;33471;52.104;1.318;2022-11-20T16:13:01;12;11;
47705;PMS5003;33471;52.104;1.318;2022-11-20T16:15:29;9;6;
47705;PMS5003;33471;52.104;1.318;2022-11-20T16:17:57;9;6;
47705;PMS5003;33471;52.104;1.318;2022-11-20T16:20:24;8;7;
47705;PMS5003;33471;52.104;1.318;2022-11-20T16:22:52;6;5;
47705;PMS5003;33471;52.104;1.318;2022-11-20T16:25:19;10;10;
47705;PMS5003;33471;52.104;1.318;2022-11-20T16:27:47;8;7;
47705;PMS5003;33471;52.104;1.318;2022-11-20T16:30:15;8;8;
47705;PMS5003;33471;52.104;1.318;2022-11-20T16:32:42;8;7;
47705;PMS5003;33471;52.104;1.318;2022-11-20T16:35:10;13;10;
47705;PMS5003;33471;52.104;1.318;2022-11-20T16:37:37;7;5;
47705;PMS5003;33471;52.104;1.318;2022-11-20T16:40:05;8;7;
47705;PMS5003;33471;52.104;1.318;2022-11-20T16:42:33;13;12;
47705;PMS5003;33471;52.104;1.318;2022-11-20T16:45:01;8;8;
47705;PMS5003;33471;52.104;1.318;2022-11-20T16:47:28;11;11;
47705;PMS5003;33471;52.104;1.318;2022-11-20T16:50:00;14;12;
47705;PMS5003;33471;52.104;1.318;2022-11-20T16:52:27;8;8;